ANA986 RJOO-RJTT
Flight info
| Callsign | ANA986 |
|---|---|
| Flight time | N/A |
| Altitude | 27000 |
| Route | ASUKA SHTLE Y71 XAC |
| Aircraft | B789/H-SDE1E2E3FGHIJ2J3J4J5M1RWXY/LB1D1 |
Departure
| Time | 2026-05-04 19:32 |
|---|---|
| Airport | Osaka Itami International Airport (RJOO) |
Arrival
| Time | N/A |
|---|---|
| Airport | Tokyo Haneda International Airport (RJTT) |
| Time | Latitude | Longitude | Altitude | Speed | Heading |
|---|---|---|---|---|---|
| 2026-05-04 19:21 | 34.79004 | 135.43944 | 56 ft | 0 kts | 54° |
| 2026-05-04 19:23 | 34.79004 | 135.43947 | 28 ft | 1 kts | 69° |
| 2026-05-04 19:24 | 34.78997 | 135.43966 | 50 ft | 7 kts | 130° |
| 2026-05-04 19:24 | 34.78949 | 135.43980 | 52 ft | 7 kts | 187° |
| 2026-05-04 19:24 | 34.78907 | 135.43956 | 52 ft | 7 kts | 193° |
| 2026-05-04 19:24 | 34.78868 | 135.43974 | 49 ft | 6 kts | 137° |
| 2026-05-04 19:25 | 34.78833 | 135.44017 | 49 ft | 8 kts | 135° |
| 2026-05-04 19:25 | 34.78785 | 135.44075 | 49 ft | 11 kts | 135° |
| 2026-05-04 19:25 | 34.78725 | 135.44147 | 49 ft | 13 kts | 135° |
| 2026-05-04 19:25 | 34.78652 | 135.44234 | 50 ft | 16 kts | 136° |
| 2026-05-04 19:26 | 34.78567 | 135.44327 | 48 ft | 16 kts | 157° |
| 2026-05-04 19:26 | 34.78451 | 135.44335 | 52 ft | 18 kts | 180° |
| 2026-05-04 19:26 | 34.78325 | 135.44335 | 52 ft | 18 kts | 180° |
| 2026-05-04 19:26 | 34.78190 | 135.44335 | 53 ft | 21 kts | 180° |
| 2026-05-04 19:27 | 34.78071 | 135.44348 | 52 ft | 9 kts | 169° |
| 2026-05-04 19:27 | 34.78035 | 135.44369 | 51 ft | 4 kts | 124° |
| 2026-05-04 19:27 | 34.78041 | 135.44432 | 48 ft | 8 kts | 73° |
| 2026-05-04 19:27 | 34.78039 | 135.44505 | 51 ft | 7 kts | 127° |
| 2026-05-04 19:28 | 34.78002 | 135.44547 | 49 ft | 10 kts | 136° |
| 2026-05-04 19:28 | 34.77945 | 135.44615 | 48 ft | 13 kts | 135° |
| 2026-05-04 19:28 | 34.77876 | 135.44699 | 51 ft | 15 kts | 134° |
| 2026-05-04 19:28 | 34.77797 | 135.44795 | 49 ft | 17 kts | 135° |
| 2026-05-04 19:29 | 34.77707 | 135.44904 | 48 ft | 19 kts | 135° |
| 2026-05-04 19:29 | 34.77608 | 135.45025 | 51 ft | 21 kts | 135° |
| 2026-05-04 19:29 | 34.77499 | 135.45157 | 54 ft | 22 kts | 135° |
| 2026-05-04 19:29 | 34.77425 | 135.45245 | 51 ft | 14 kts | 135° |
| 2026-05-04 19:30 | 34.77335 | 135.45304 | 52 ft | 15 kts | 175° |
| 2026-05-04 19:30 | 34.77260 | 135.45236 | 51 ft | 13 kts | 250° |
| 2026-05-04 19:30 | 34.77265 | 135.45131 | 52 ft | 10 kts | 308° |
| 2026-05-04 19:30 | 34.77279 | 135.45113 | 51 ft | 0 kts | 315° |
| 2026-05-04 19:31 | 34.77281 | 135.45111 | 51 ft | 0 kts | 315° |
| 2026-05-04 19:31 | 34.77359 | 135.45016 | 51 ft | 45 kts | 315° |
| 2026-05-04 19:31 | 34.77816 | 135.44463 | 51 ft | 138 kts | 315° |
| 2026-05-04 19:31 | 34.78631 | 135.43450 | 376 ft | 181 kts | 308° |
| 2026-05-04 19:32 | 34.79421 | 135.42245 | 1042 ft | 189 kts | 298° |
| 2026-05-04 19:32 | 34.79579 | 135.40607 | 1395 ft | 207 kts | 254° |
| 2026-05-04 19:32 | 34.78724 | 135.39172 | 1827 ft | 220 kts | 214° |
| 2026-05-04 19:32 | 34.77221 | 135.38718 | 2158 ft | 236 kts | 174° |
| 2026-05-04 19:33 | 34.75789 | 135.39592 | 2797 ft | 229 kts | 129° |
| 2026-05-04 19:33 | 34.75157 | 135.41333 | 3237 ft | 231 kts | 90° |
| 2026-05-04 19:33 | 34.75589 | 135.43158 | 3721 ft | 226 kts | 51° |
| 2026-05-04 19:33 | 34.76610 | 135.44647 | 4161 ft | 234 kts | 47° |
| 2026-05-04 19:34 | 34.77507 | 135.46329 | 4715 ft | 240 kts | 59° |
| 2026-05-04 19:34 | 34.78204 | 135.48188 | 5264 ft | 245 kts | 63° |
| 2026-05-04 19:34 | 34.78904 | 135.50100 | 5792 ft | 248 kts | 61° |
| 2026-05-04 19:34 | 34.79575 | 135.52039 | 6367 ft | 253 kts | 70° |
| 2026-05-04 19:35 | 34.79728 | 135.54205 | 6895 ft | 262 kts | 90° |
| 2026-05-04 19:35 | 34.79444 | 135.56423 | 7365 ft | 269 kts | 96° |
| 2026-05-04 19:35 | 34.79168 | 135.58687 | 7889 ft | 271 kts | 91° |
| 2026-05-04 19:35 | 34.79052 | 135.60976 | 8384 ft | 274 kts | 86° |
| 2026-05-04 19:36 | 34.79017 | 135.63311 | 8908 ft | 277 kts | 86° |
| 2026-05-04 19:36 | 34.78956 | 135.64870 | 9241 ft | 281 kts | 89° |
| 2026-05-04 19:36 | 34.78768 | 135.67271 | 9729 ft | 287 kts | 90° |
| 2026-05-04 19:36 | 34.78597 | 135.69751 | 10073 ft | 304 kts | 89° |
| 2026-05-04 19:37 | 34.78471 | 135.72368 | 10534 ft | 318 kts | 88° |
| 2026-05-04 19:37 | 34.78334 | 135.75170 | 10880 ft | 337 kts | 89° |
| 2026-05-04 19:37 | 34.78169 | 135.78082 | 11262 ft | 354 kts | 89° |
| 2026-05-04 19:37 | 34.77992 | 135.81102 | 11632 ft | 371 kts | 90° |
| 2026-05-04 19:38 | 34.77814 | 135.84277 | 12169 ft | 381 kts | 90° |
| 2026-05-04 19:38 | 34.77634 | 135.87522 | 12811 ft | 387 kts | 90° |
| 2026-05-04 19:38 | 34.77449 | 135.90802 | 13496 ft | 392 kts | 90° |
| 2026-05-04 19:38 | 34.77263 | 135.94131 | 14135 ft | 397 kts | 91° |
| 2026-05-04 19:39 | 34.77201 | 135.97500 | 14696 ft | 401 kts | 86° |
| 2026-05-04 19:39 | 34.77271 | 136.00905 | 15276 ft | 406 kts | 86° |
| 2026-05-04 19:39 | 34.77282 | 136.04361 | 15841 ft | 412 kts | 88° |
| 2026-05-04 19:39 | 34.77210 | 136.07869 | 16420 ft | 417 kts | 89° |
| 2026-05-04 19:40 | 34.77148 | 136.11406 | 16972 ft | 422 kts | 89° |
| 2026-05-04 19:40 | 34.77132 | 136.14995 | 17536 ft | 426 kts | 88° |
| 2026-05-04 19:40 | 34.77119 | 136.18626 | 18089 ft | 432 kts | 89° |
| 2026-05-04 19:40 | 34.77079 | 136.22307 | 18564 ft | 438 kts | 90° |
| 2026-05-04 19:41 | 34.77030 | 136.26026 | 19026 ft | 443 kts | 90° |
| 2026-05-04 19:41 | 34.76991 | 136.29792 | 19475 ft | 448 kts | 90° |
| 2026-05-04 19:41 | 34.76958 | 136.33595 | 19918 ft | 452 kts | 91° |
| 2026-05-04 19:41 | 34.76918 | 136.37439 | 20394 ft | 456 kts | 91° |
| 2026-05-04 19:42 | 34.76871 | 136.41319 | 20756 ft | 462 kts | 91° |
| 2026-05-04 19:42 | 34.76825 | 136.45254 | 21169 ft | 467 kts | 91° |
| 2026-05-04 19:42 | 34.76780 | 136.49220 | 21579 ft | 472 kts | 91° |
| 2026-05-04 19:42 | 34.76732 | 136.53233 | 22039 ft | 475 kts | 92° |
| 2026-05-04 19:43 | 34.76682 | 136.57255 | 22552 ft | 477 kts | 92° |
| 2026-05-04 19:43 | 34.76630 | 136.61289 | 23045 ft | 479 kts | 93° |
| 2026-05-04 19:43 | 34.76577 | 136.65358 | 23553 ft | 481 kts | 93° |
| 2026-05-04 19:43 | 34.76522 | 136.69431 | 23985 ft | 483 kts | 93° |
| 2026-05-04 19:44 | 34.76467 | 136.73515 | 24361 ft | 484 kts | 94° |
| 2026-05-04 19:44 | 34.76409 | 136.77621 | 24766 ft | 486 kts | 94° |
| 2026-05-04 19:44 | 34.76349 | 136.81737 | 25175 ft | 488 kts | 95° |
| 2026-05-04 19:44 | 34.76289 | 136.85860 | 25598 ft | 489 kts | 95° |
| 2026-05-04 19:45 | 34.76227 | 136.89997 | 25994 ft | 490 kts | 95° |
| 2026-05-04 19:45 | 34.76163 | 136.94139 | 26421 ft | 491 kts | 96° |
| 2026-05-04 19:45 | 34.76097 | 136.98295 | 26809 ft | 493 kts | 96° |
| 2026-05-04 19:45 | 34.76028 | 137.02486 | 27029 ft | 499 kts | 96° |
| 2026-05-04 19:46 | 34.75959 | 137.06651 | 27067 ft | 498 kts | 96° |
| 2026-05-04 19:46 | 34.75894 | 137.10836 | 27073 ft | 493 kts | 96° |
| 2026-05-04 19:46 | 34.75823 | 137.15001 | 27041 ft | 493 kts | 97° |
| 2026-05-04 19:46 | 34.75746 | 137.19173 | 27068 ft | 494 kts | 97° |
| 2026-05-04 19:47 | 34.75668 | 137.23345 | 27064 ft | 494 kts | 97° |
| 2026-05-04 19:47 | 34.75596 | 137.27520 | 27067 ft | 493 kts | 97° |
| 2026-05-04 19:47 | 34.75521 | 137.31687 | 27064 ft | 493 kts | 97° |
| 2026-05-04 19:47 | 34.75442 | 137.35852 | 27062 ft | 493 kts | 97° |
| 2026-05-04 19:48 | 34.75360 | 137.40023 | 27069 ft | 493 kts | 97° |
| 2026-05-04 19:48 | 34.75278 | 137.44192 | 27069 ft | 494 kts | 97° |
| 2026-05-04 19:48 | 34.75197 | 137.48369 | 27059 ft | 494 kts | 97° |
| 2026-05-04 19:48 | 34.75113 | 137.52550 | 27060 ft | 494 kts | 97° |
| 2026-05-04 19:49 | 34.75026 | 137.56724 | 27054 ft | 494 kts | 97° |
| 2026-05-04 19:49 | 34.74939 | 137.60902 | 27063 ft | 495 kts | 97° |
| 2026-05-04 19:49 | 34.74849 | 137.65095 | 27059 ft | 497 kts | 97° |
| 2026-05-04 19:49 | 34.74692 | 137.69275 | 27037 ft | 492 kts | 103° |
| 2026-05-04 19:50 | 34.74292 | 137.73390 | 27039 ft | 491 kts | 104° |
| 2026-05-04 19:50 | 34.73882 | 137.77516 | 27043 ft | 492 kts | 104° |
| 2026-05-04 19:50 | 34.73486 | 137.81699 | 27042 ft | 492 kts | 103° |
| 2026-05-04 19:50 | 34.73103 | 137.85836 | 27044 ft | 493 kts | 104° |
| 2026-05-04 19:51 | 34.72706 | 137.89983 | 27035 ft | 493 kts | 104° |
| 2026-05-04 19:51 | 34.72302 | 137.94114 | 27022 ft | 493 kts | 104° |
| 2026-05-04 19:51 | 34.71900 | 137.98246 | 27019 ft | 491 kts | 104° |